sensor_id;sensor_type;location;lat;lon;timestamp;pressure;altitude;pressure_sealevel;temperature;humidity
59531;BME280;45349;48.692;8.186;2023-06-26T00:01:37;98588.31;;;18.39;64.54
59531;BME280;45349;48.692;8.186;2023-06-26T00:04:05;98591.19;;;18.38;64.35
59531;BME280;45349;48.692;8.186;2023-06-26T00:06:31;98590.34;;;18.37;66.16
59531;BME280;45349;48.692;8.186;2023-06-26T00:08:58;98592.16;;;18.30;64.06
59531;BME280;45349;48.692;8.186;2023-06-26T00:11:26;98589.31;;;18.18;63.78
59531;BME280;45349;48.692;8.186;2023-06-26T00:13:58;98602.75;;;18.30;63.21
59531;BME280;45349;48.692;8.186;2023-06-26T00:16:25;98604.38;;;18.24;64.75
59531;BME280;45349;48.692;8.186;2023-06-26T00:18:59;98603.72;;;18.15;63.31
59531;BME280;45349;48.692;8.186;2023-06-26T00:21:26;98604.16;;;18.26;64.65
59531;BME280;45349;48.692;8.186;2023-06-26T00:23:58;98599.88;;;18.18;65.30
59531;BME280;45349;48.692;8.186;2023-06-26T00:26:26;98597.66;;;18.15;64.29
59531;BME280;45349;48.692;8.186;2023-06-26T00:28:58;98594.78;;;18.17;65.31
59531;BME280;45349;48.692;8.186;2023-06-26T00:31:25;98595.00;;;18.15;65.11
59531;BME280;45349;48.692;8.186;2023-06-26T00:33:55;98590.09;;;18.05;65.91
59531;BME280;45349;48.692;8.186;2023-06-26T00:36:23;98599.47;;;18.08;65.53
59531;BME280;45349;48.692;8.186;2023-06-26T00:38:56;98598.81;;;17.99;65.71
59531;BME280;45349;48.692;8.186;2023-06-26T00:41:23;98605.94;;;18.05;65.95
59531;BME280;45349;48.692;8.186;2023-06-26T00:43:51;98606.78;;;18.06;65.29
59531;BME280;45349;48.692;8.186;2023-06-26T00:46:17;98602.28;;;17.99;65.08
59531;BME280;45349;48.692;8.186;2023-06-26T00:48:46;98609.78;;;17.96;65.30
59531;BME280;45349;48.692;8.186;2023-06-26T00:51:15;98602.47;;;17.98;68.28
59531;BME280;45349;48.692;8.186;2023-06-26T00:53:42;98600.63;;;17.92;66.55
59531;BME280;45349;48.692;8.186;2023-06-26T00:56:10;98604.47;;;17.89;65.58
59531;BME280;45349;48.692;8.186;2023-06-26T00:58:37;98601.19;;;17.80;65.52
59531;BME280;45349;48.692;8.186;2023-06-26T01:01:05;98599.19;;;17.89;65.71
59531;BME280;45349;48.692;8.186;2023-06-26T01:03:34;98596.94;;;17.86;66.93
59531;BME280;45349;48.692;8.186;2023-06-26T01:06:02;98603.00;;;17.80;67.50
59531;BME280;45349;48.692;8.186;2023-06-26T01:08:31;98596.31;;;17.84;67.85
59531;BME280;45349;48.692;8.186;2023-06-26T01:10:59;98607.09;;;17.82;66.15
59531;BME280;45349;48.692;8.186;2023-06-26T01:13:26;98597.72;;;17.80;66.57
59531;BME280;45349;48.692;8.186;2023-06-26T01:15:55;98601.00;;;17.82;66.57
59531;BME280;45349;48.692;8.186;2023-06-26T01:18:25;98611.75;;;17.80;67.38
59531;BME280;45349;48.692;8.186;2023-06-26T01:20:53;98592.44;;;17.80;66.69
59531;BME280;45349;48.692;8.186;2023-06-26T01:23:30;98595.31;;;17.78;68.66
59531;BME280;45349;48.692;8.186;2023-06-26T01:26:11;98588.19;;;17.72;67.53
59531;BME280;45349;48.692;8.186;2023-06-26T01:28:42;98582.91;;;17.72;68.46
59531;BME280;45349;48.692;8.186;2023-06-26T01:31:10;98583.06;;;17.70;68.24
59531;BME280;45349;48.692;8.186;2023-06-26T01:33:38;98587.94;;;17.67;69.34
59531;BME280;45349;48.692;8.186;2023-06-26T01:36:05;98579.22;;;17.66;67.47
59531;BME280;45349;48.692;8.186;2023-06-26T01:38:34;98584.09;;;17.63;68.96
59531;BME280;45349;48.692;8.186;2023-06-26T01:41:01;98578.34;;;17.52;69.82
59531;BME280;45349;48.692;8.186;2023-06-26T01:43:36;98582.00;;;17.45;69.45
59531;BME280;45349;48.692;8.186;2023-06-26T01:46:14;98574.47;;;17.48;69.03
59531;BME280;45349;48.692;8.186;2023-06-26T01:48:48;98570.44;;;17.52;70.40
59531;BME280;45349;48.692;8.186;2023-06-26T01:51:17;98576.09;;;17.43;69.87
59531;BME280;45349;48.692;8.186;2023-06-26T01:53:46;98576.50;;;17.53;70.96
59531;BME280;45349;48.692;8.186;2023-06-26T01:56:18;98570.44;;;17.52;71.02
59531;BME280;45349;48.692;8.186;2023-06-26T01:58:47;98570.84;;;17.49;70.59
59531;BME280;45349;48.692;8.186;2023-06-26T02:01:14;98569.44;;;17.60;69.74
59531;BME280;45349;48.692;8.186;2023-06-26T02:03:41;98571.63;;;17.50;71.05
59531;BME280;45349;48.692;8.186;2023-06-26T02:06:08;98569.41;;;17.47;70.52
59531;BME280;45349;48.692;8.186;2023-06-26T02:08:35;98567.56;;;17.47;71.01
59531;BME280;45349;48.692;8.186;2023-06-26T02:11:02;98570.44;;;17.46;71.99
59531;BME280;45349;48.692;8.186;2023-06-26T02:13:28;98563.91;;;17.41;71.87
59531;BME280;45349;48.692;8.186;2023-06-26T02:15:56;98565.50;;;17.36;70.68
59531;BME280;45349;48.692;8.186;2023-06-26T02:18:23;98565.94;;;17.39;72.35
59531;BME280;45349;48.692;8.186;2023-06-26T02:20:50;98563.88;;;17.35;72.55
59531;BME280;45349;48.692;8.186;2023-06-26T02:23:17;98559.03;;;17.38;72.32
59531;BME280;45349;48.692;8.186;2023-06-26T02:25:43;98559.19;;;17.30;74.52
59531;BME280;45349;48.692;8.186;2023-06-26T02:28:10;98545.63;;;17.33;73.10
59531;BME280;45349;48.692;8.186;2023-06-26T02:30:36;98547.81;;;17.30;74.02
59531;BME280;45349;48.692;8.186;2023-06-26T02:33:04;98548.88;;;17.35;74.04
59531;BME280;45349;48.692;8.186;2023-06-26T02:35:31;98542.16;;;17.33;75.00
59531;BME280;45349;48.692;8.186;2023-06-26T02:37:58;98546.78;;;17.24;73.95
59531;BME280;45349;48.692;8.186;2023-06-26T02:40:25;98547.25;;;17.34;73.68
59531;BME280;45349;48.692;8.186;2023-06-26T02:42:52;98550.84;;;17.26;73.52
59531;BME280;45349;48.692;8.186;2023-06-26T02:45:19;98549.22;;;17.25;74.03
59531;BME280;45349;48.692;8.186;2023-06-26T02:47:46;98546.56;;;17.19;72.72
59531;BME280;45349;48.692;8.186;2023-06-26T02:50:14;98547.25;;;17.34;72.87
59531;BME280;45349;48.692;8.186;2023-06-26T02:53:04;98551.91;;;17.39;73.41
59531;BME280;45349;48.692;8.186;2023-06-26T02:55:32;98548.88;;;17.42;71.63
59531;BME280;45349;48.692;8.186;2023-06-26T02:57:59;98545.63;;;17.40;71.89
59531;BME280;45349;48.692;8.186;2023-06-26T03:04:02;98547.50;;;17.53;71.53
59531;BME280;45349;48.692;8.186;2023-06-26T03:06:31;98548.72;;;17.50;71.53
59531;BME280;45349;48.692;8.186;2023-06-26T03:08:58;98544.44;;;17.49;72.19
59531;BME280;45349;48.692;8.186;2023-06-26T03:11:25;98555.00;;;17.49;71.66
59531;BME280;45349;48.692;8.186;2023-06-26T03:14:16;98555.84;;;17.56;72.16
59531;BME280;45349;48.692;8.186;2023-06-26T03:16:43;98553.19;;;17.56;72.49
59531;BME280;45349;48.692;8.186;2023-06-26T03:19:10;98552.19;;;17.58;73.11
59531;BME280;45349;48.692;8.186;2023-06-26T03:21:58;98561.34;;;17.62;72.64
59531;BME280;45349;48.692;8.186;2023-06-26T03:24:24;98562.97;;;17.63;73.15
59531;BME280;45349;48.692;8.186;2023-06-26T03:26:51;98568.25;;;17.63;73.89
59531;BME280;45349;48.692;8.186;2023-06-26T03:29:18;98568.63;;;17.60;74.06
59531;BME280;45349;48.692;8.186;2023-06-26T03:31:44;98566.19;;;17.58;73.91
59531;BME280;45349;48.692;8.186;2023-06-26T03:34:12;98570.25;;;17.61;73.59
59531;BME280;45349;48.692;8.186;2023-06-26T03:36:38;98570.50;;;17.66;74.28
59531;BME280;45349;48.692;8.186;2023-06-26T03:39:06;98567.63;;;17.61;75.14
59531;BME280;45349;48.692;8.186;2023-06-26T03:41:35;98570.44;;;17.59;75.41
59531;BME280;45349;48.692;8.186;2023-06-26T03:44:01;98569.25;;;17.62;76.09
59531;BME280;45349;48.692;8.186;2023-06-26T03:46:35;98564.16;;;17.60;75.23
59531;BME280;45349;48.692;8.186;2023-06-26T03:49:02;98562.75;;;17.64;76.73
59531;BME280;45349;48.692;8.186;2023-06-26T03:51:29;98568.66;;;17.66;76.16
59531;BME280;45349;48.692;8.186;2023-06-26T03:53:58;98563.81;;;17.77;76.97
59531;BME280;45349;48.692;8.186;2023-06-26T03:56:27;98569.47;;;17.74;75.89
59531;BME280;45349;48.692;8.186;2023-06-26T03:58:58;98573.97;;;17.73;76.37
59531;BME280;45349;48.692;8.186;2023-06-26T04:01:26;98584.53;;;17.73;76.53
59531;BME280;45349;48.692;8.186;2023-06-26T04:04:00;98576.59;;;17.73;77.48
59531;BME280;45349;48.692;8.186;2023-06-26T04:06:26;98578.41;;;17.73;77.34
59531;BME280;45349;48.692;8.186;2023-06-26T04:08:59;98583.50;;;17.74;78.58
59531;BME280;45349;48.692;8.186;2023-06-26T04:11:27;98584.94;;;17.77;76.96
59531;BME280;45349;48.692;8.186;2023-06-26T04:13:59;98587.59;;;17.83;77.43
59531;BME280;45349;48.692;8.186;2023-06-26T04:16:26;98590.66;;;17.87;77.10
59531;BME280;45349;48.692;8.186;2023-06-26T04:18:58;98593.31;;;17.94;77.49
59531;BME280;45349;48.692;8.186;2023-06-26T04:21:24;98591.47;;;17.94;76.76
59531;BME280;45349;48.692;8.186;2023-06-26T04:23:55;98592.72;;;17.92;76.87
59531;BME280;45349;48.692;8.186;2023-06-26T04:26:22;98598.00;;;17.98;77.69
59531;BME280;45349;48.692;8.186;2023-06-26T04:28:49;98592.34;;;18.02;77.66
59531;BME280;45349;48.692;8.186;2023-06-26T04:31:16;98598.63;;;18.00;76.60
59531;BME280;45349;48.692;8.186;2023-06-26T04:33:43;98588.47;;;18.04;78.29
59531;BME280;45349;48.692;8.186;2023-06-26T04:36:09;98587.84;;;18.02;79.35
59531;BME280;45349;48.692;8.186;2023-06-26T04:38:36;98588.06;;;18.00;79.39
59531;BME280;45349;48.692;8.186;2023-06-26T04:41:03;98584.19;;;18.03;80.46
59531;BME280;45349;48.692;8.186;2023-06-26T04:43:29;98586.84;;;18.03;79.76
59531;BME280;45349;48.692;8.186;2023-06-26T04:45:57;98581.38;;;18.11;79.06
59531;BME280;45349;48.692;8.186;2023-06-26T04:48:24;98588.31;;;18.19;78.58
59531;BME280;45349;48.692;8.186;2023-06-26T04:50:52;98588.91;;;18.28;77.78
59531;BME280;45349;48.692;8.186;2023-06-26T04:53:20;98594.22;;;18.41;76.43
59531;BME280;45349;48.692;8.186;2023-06-26T04:55:47;98597.47;;;18.57;75.92
59531;BME280;45349;48.692;8.186;2023-06-26T04:58:13;98597.06;;;18.60;75.47
59531;BME280;45349;48.692;8.186;2023-06-26T05:00:40;98599.91;;;18.72;75.35
59531;BME280;45349;48.692;8.186;2023-06-26T05:03:10;98590.97;;;18.80;74.69
59531;BME280;45349;48.692;8.186;2023-06-26T05:05:37;98591.75;;;18.87;74.74
59531;BME280;45349;48.692;8.186;2023-06-26T05:08:22;98590.13;;;18.93;75.37
59531;BME280;45349;48.692;8.186;2023-06-26T05:10:49;98587.28;;;19.01;74.10
59531;BME280;45349;48.692;8.186;2023-06-26T05:13:16;98596.03;;;19.08;74.93
59531;BME280;45349;48.692;8.186;2023-06-26T05:15:45;98595.81;;;19.16;75.10
59531;BME280;45349;48.692;8.186;2023-06-26T05:18:13;98590.88;;;19.20;76.08
59531;BME280;45349;48.692;8.186;2023-06-26T05:20:40;98593.72;;;19.25;75.16
59531;BME280;45349;48.692;8.186;2023-06-26T05:23:07;98592.25;;;19.43;74.52
59531;BME280;45349;48.692;8.186;2023-06-26T05:25:34;98588.38;;;19.45;74.57
59531;BME280;45349;48.692;8.186;2023-06-26T05:28:01;98593.44;;;19.54;74.45
59531;BME280;45349;48.692;8.186;2023-06-26T05:30:31;98593.38;;;19.67;75.43
59531;BME280;45349;48.692;8.186;2023-06-26T05:33:00;98590.91;;;19.72;73.77
59531;BME280;45349;48.692;8.186;2023-06-26T05:35:30;98599.00;;;19.84;73.35
59531;BME280;45349;48.692;8.186;2023-06-26T05:37:57;98599.56;;;20.00;72.12
59531;BME280;45349;48.692;8.186;2023-06-26T05:40:25;98603.31;;;20.17;72.16
59531;BME280;45349;48.692;8.186;2023-06-26T05:42:52;98607.97;;;20.54;71.23
59531;BME280;45349;48.692;8.186;2023-06-26T05:45:18;98613.47;;;21.03;69.90
59531;BME280;45349;48.692;8.186;2023-06-26T05:47:45;98623.50;;;21.38;68.85
59531;BME280;45349;48.692;8.186;2023-06-26T05:50:13;98631.25;;;21.59;66.59
59531;BME280;45349;48.692;8.186;2023-06-26T05:52:41;98637.72;;;21.81;64.39
59531;BME280;45349;48.692;8.186;2023-06-26T05:55:10;98633.78;;;22.03;61.60
59531;BME280;45349;48.692;8.186;2023-06-26T05:57:37;98642.81;;;22.14;62.27
59531;BME280;45349;48.692;8.186;2023-06-26T06:00:07;98644.44;;;22.15;59.52
59531;BME280;45349;48.692;8.186;2023-06-26T06:02:39;98636.59;;;22.20;59.51
59531;BME280;45349;48.692;8.186;2023-06-26T06:05:07;98636.97;;;22.23;59.57
59531;BME280;45349;48.692;8.186;2023-06-26T06:07:34;98638.97;;;22.40;59.18
59531;BME280;45349;48.692;8.186;2023-06-26T06:10:03;98635.78;;;22.50;60.32
59531;BME280;45349;48.692;8.186;2023-06-26T06:12:30;98642.59;;;22.58;62.13
59531;BME280;45349;48.692;8.186;2023-06-26T06:14:56;98644.94;;;22.66;62.87
59531;BME280;45349;48.692;8.186;2023-06-26T06:17:23;98647.97;;;22.81;61.41
59531;BME280;45349;48.692;8.186;2023-06-26T06:19:50;98656.63;;;23.00;62.20
59531;BME280;45349;48.692;8.186;2023-06-26T06:22:17;98656.75;;;23.18;61.67
59531;BME280;45349;48.692;8.186;2023-06-26T06:24:43;98658.16;;;23.32;58.72
59531;BME280;45349;48.692;8.186;2023-06-26T06:27:11;98659.75;;;23.33;56.02
59531;BME280;45349;48.692;8.186;2023-06-26T06:29:38;98660.34;;;23.47;56.70
59531;BME280;45349;48.692;8.186;2023-06-26T06:32:06;98656.84;;;23.58;57.49
59531;BME280;45349;48.692;8.186;2023-06-26T06:34:32;98658.41;;;23.71;58.60
59531;BME280;45349;48.692;8.186;2023-06-26T06:36:59;98649.69;;;23.88;59.24
59531;BME280;45349;48.692;8.186;2023-06-26T06:39:25;98659.53;;;23.99;58.78
59531;BME280;45349;48.692;8.186;2023-06-26T06:41:52;98657.72;;;24.17;56.59
59531;BME280;45349;48.692;8.186;2023-06-26T06:44:20;98656.59;;;24.30;57.37
59531;BME280;45349;48.692;8.186;2023-06-26T06:46:47;98651.53;;;24.45;56.80
59531;BME280;45349;48.692;8.186;2023-06-26T06:49:14;98670.91;;;24.41;53.21
59531;BME280;45349;48.692;8.186;2023-06-26T06:51:40;98671.94;;;24.23;53.97
59531;BME280;45349;48.692;8.186;2023-06-26T06:54:07;98677.06;;;24.41;54.68
59531;BME280;45349;48.692;8.186;2023-06-26T06:56:34;98684.41;;;24.51;55.49
59531;BME280;45349;48.692;8.186;2023-06-26T06:59:00;98676.97;;;24.53;56.12
59531;BME280;45349;48.692;8.186;2023-06-26T07:01:28;98679.13;;;24.68;54.68
59531;BME280;45349;48.692;8.186;2023-06-26T07:03:58;98679.00;;;24.46;56.17
59531;BME280;45349;48.692;8.186;2023-06-26T07:06:25;98678.59;;;24.54;57.07
59531;BME280;45349;48.692;8.186;2023-06-26T07:09:17;98685.81;;;24.54;55.73
59531;BME280;45349;48.692;8.186;2023-06-26T07:11:43;98688.66;;;24.18;57.08
59531;BME280;45349;48.692;8.186;2023-06-26T07:14:11;98685.81;;;23.96;57.27
59531;BME280;45349;48.692;8.186;2023-06-26T07:16:39;98694.31;;;24.22;57.39
59531;BME280;45349;48.692;8.186;2023-06-26T07:19:05;98694.84;;;24.36;57.22
59531;BME280;45349;48.692;8.186;2023-06-26T07:21:32;98692.56;;;24.73;57.52
59531;BME280;45349;48.692;8.186;2023-06-26T07:23:59;98685.34;;;24.91;56.31
59531;BME280;45349;48.692;8.186;2023-06-26T07:26:25;98685.16;;;25.15;56.31
59531;BME280;45349;48.692;8.186;2023-06-26T07:28:58;98698.03;;;25.35;55.71
59531;BME280;45349;48.692;8.186;2023-06-26T07:31:25;98686.28;;;25.36;55.99
59531;BME280;45349;48.692;8.186;2023-06-26T07:34:18;98694.56;;;25.57;54.01
59531;BME280;45349;48.692;8.186;2023-06-26T07:36:45;98698.38;;;25.61;54.45
59531;BME280;45349;48.692;8.186;2023-06-26T07:39:11;98695.44;;;25.85;54.92
59531;BME280;45349;48.692;8.186;2023-06-26T07:41:40;98687.81;;;25.93;55.82
59531;BME280;45349;48.692;8.186;2023-06-26T07:44:06;98697.22;;;26.23;54.70
59531;BME280;45349;48.692;8.186;2023-06-26T07:46:33;98702.22;;;26.42;52.15
59531;BME280;45349;48.692;8.186;2023-06-26T07:48:59;98702.91;;;26.27;50.62
59531;BME280;45349;48.692;8.186;2023-06-26T07:51:27;98707.78;;;26.35;50.86
59531;BME280;45349;48.692;8.186;2023-06-26T07:53:58;98706.69;;;26.31;49.08
59531;BME280;45349;48.692;8.186;2023-06-26T07:56:25;98715.34;;;26.16;50.31
59531;BME280;45349;48.692;8.186;2023-06-26T07:58:58;98710.66;;;26.06;50.60
59531;BME280;45349;48.692;8.186;2023-06-26T08:01:26;98714.56;;;25.93;51.26
59531;BME280;45349;48.692;8.186;2023-06-26T08:03:58;98714.97;;;26.07;50.58
59531;BME280;45349;48.692;8.186;2023-06-26T08:06:24;98715.44;;;26.27;49.88
59531;BME280;45349;48.692;8.186;2023-06-26T08:08:52;98717.88;;;26.28;50.90
59531;BME280;45349;48.692;8.186;2023-06-26T08:11:19;98724.66;;;26.36;47.91
59531;BME280;45349;48.692;8.186;2023-06-26T08:13:48;98719.94;;;26.21;46.24
59531;BME280;45349;48.692;8.186;2023-06-26T08:16:14;98721.75;;;25.93;48.81
59531;BME280;45349;48.692;8.186;2023-06-26T08:18:41;98726.41;;;26.03;48.48
59531;BME280;45349;48.692;8.186;2023-06-26T08:21:07;98727.97;;;26.21;46.72
59531;BME280;45349;48.692;8.186;2023-06-26T08:23:36;98730.44;;;26.28;46.50
59531;BME280;45349;48.692;8.186;2023-06-26T08:26:03;98744.94;;;26.59;46.45
59531;BME280;45349;48.692;8.186;2023-06-26T08:28:30;98745.47;;;26.61;46.50
59531;BME280;45349;48.692;8.186;2023-06-26T08:30:57;98741.00;;;26.67;46.75
59531;BME280;45349;48.692;8.186;2023-06-26T08:33:23;98748.31;;;26.77;47.38
59531;BME280;45349;48.692;8.186;2023-06-26T08:35:50;98746.69;;;26.76;48.23
59531;BME280;45349;48.692;8.186;2023-06-26T08:38:16;98749.91;;;26.78;48.00
59531;BME280;45349;48.692;8.186;2023-06-26T08:40:43;98754.50;;;26.50;48.74
59531;BME280;45349;48.692;8.186;2023-06-26T08:43:11;98771.09;;;26.52;47.80
59531;BME280;45349;48.692;8.186;2023-06-26T08:45:38;98776.03;;;26.65;48.09
59531;BME280;45349;48.692;8.186;2023-06-26T08:48:07;98766.63;;;26.58;47.68
59531;BME280;45349;48.692;8.186;2023-06-26T08:50:35;98772.00;;;26.90;47.22
59531;BME280;45349;48.692;8.186;2023-06-26T08:53:04;98789.09;;;26.57;48.61
59531;BME280;45349;48.692;8.186;2023-06-26T08:55:35;98781.72;;;26.42;49.47
59531;BME280;45349;48.692;8.186;2023-06-26T08:58:04;98772.94;;;26.79;48.78
59531;BME280;45349;48.692;8.186;2023-06-26T09:00:34;98782.72;;;26.90;48.92
59531;BME280;45349;48.692;8.186;2023-06-26T09:03:01;98785.81;;;27.09;47.51
59531;BME280;45349;48.692;8.186;2023-06-26T09:05:29;98788.06;;;27.55;48.18
59531;BME280;45349;48.692;8.186;2023-06-26T09:07:57;98789.22;;;27.32;47.52
59531;BME280;45349;48.692;8.186;2023-06-26T09:10:24;98801.69;;;28.02;46.48
59531;BME280;45349;48.692;8.186;2023-06-26T09:12:50;98800.69;;;28.13;45.96
59531;BME280;45349;48.692;8.186;2023-06-26T09:15:19;98800.38;;;28.10;45.46
59531;BME280;45349;48.692;8.186;2023-06-26T09:17:48;98813.63;;;27.74;47.78
59531;BME280;45349;48.692;8.186;2023-06-26T09:20:14;98818.53;;;27.87;46.20
59531;BME280;45349;48.692;8.186;2023-06-26T09:22:48;98823.50;;;28.16;47.29
59531;BME280;45349;48.692;8.186;2023-06-26T09:25:16;98817.13;;;28.33;45.37
59531;BME280;45349;48.692;8.186;2023-06-26T09:27:43;98814.38;;;28.17;46.07
59531;BME280;45349;48.692;8.186;2023-06-26T09:30:16;98821.53;;;27.96;46.40
59531;BME280;45349;48.692;8.186;2023-06-26T09:32:43;98824.34;;;28.22;45.60
59531;BME280;45349;48.692;8.186;2023-06-26T09:35:11;98832.44;;;27.79;47.05
59531;BME280;45349;48.692;8.186;2023-06-26T09:37:38;98832.81;;;27.55;47.71
59531;BME280;45349;48.692;8.186;2023-06-26T09:40:06;98834.53;;;27.01;49.80
59531;BME280;45349;48.692;8.186;2023-06-26T09:42:33;98829.69;;;26.76;49.43
59531;BME280;45349;48.692;8.186;2023-06-26T09:45:01;98829.44;;;27.37;49.47
59531;BME280;45349;48.692;8.186;2023-06-26T09:47:30;98823.03;;;27.06;49.32
59531;BME280;45349;48.692;8.186;2023-06-26T09:49:57;98838.97;;;27.50;49.12
59531;BME280;45349;48.692;8.186;2023-06-26T09:52:26;98836.19;;;27.78;48.13
59531;BME280;45349;48.692;8.186;2023-06-26T09:55:07;98834.19;;;28.06;47.17
59531;BME280;45349;48.692;8.186;2023-06-26T09:57:34;98838.06;;;27.82;47.89
59531;BME280;45349;48.692;8.186;2023-06-26T10:00:01;98838.75;;;28.10;47.74
59531;BME280;45349;48.692;8.186;2023-06-26T10:02:37;98844.50;;;28.29;47.29
59531;BME280;45349;48.692;8.186;2023-06-26T10:05:05;98829.97;;;28.20;46.66
59531;BME280;45349;48.692;8.186;2023-06-26T10:07:33;98825.19;;;28.33;47.05
59531;BME280;45349;48.692;8.186;2023-06-26T10:10:02;98835.44;;;28.51;46.87
59531;BME280;45349;48.692;8.186;2023-06-26T10:12:30;98829.63;;;28.06;46.78
59531;BME280;45349;48.692;8.186;2023-06-26T10:14:57;98828.44;;;28.40;45.83
59531;BME280;45349;48.692;8.186;2023-06-26T10:17:31;98834.94;;;28.60;45.48
59531;BME280;45349;48.692;8.186;2023-06-26T10:20:01;98835.84;;;29.12;46.28
59531;BME280;45349;48.692;8.186;2023-06-26T10:22:30;98834.75;;;28.97;44.33
59531;BME280;45349;48.692;8.186;2023-06-26T10:25:03;98828.84;;;29.16;45.43
59531;BME280;45349;48.692;8.186;2023-06-26T10:27:34;98836.34;;;28.88;45.32
59531;BME280;45349;48.692;8.186;2023-06-26T10:30:04;98823.28;;;28.23;45.92
59531;BME280;45349;48.692;8.186;2023-06-26T10:32:32;98827.88;;;27.79;46.00
59531;BME280;45349;48.692;8.186;2023-06-26T10:34:59;98844.22;;;28.21;44.69
59531;BME280;45349;48.692;8.186;2023-06-26T10:37:41;98846.78;;;28.05;46.28
59531;BME280;45349;48.692;8.186;2023-06-26T10:40:10;98847.97;;;28.20;44.45
59531;BME280;45349;48.692;8.186;2023-06-26T10:42:38;98840.78;;;27.88;45.71
59531;BME280;45349;48.692;8.186;2023-06-26T10:45:14;98843.53;;;27.55;47.06
59531;BME280;45349;48.692;8.186;2023-06-26T10:47:41;98848.69;;;28.05;45.27
59531;BME280;45349;48.692;8.186;2023-06-26T10:50:24;98851.00;;;28.49;45.22
59531;BME280;45349;48.692;8.186;2023-06-26T10:53:14;98854.66;;;28.22;43.21
59531;BME280;45349;48.692;8.186;2023-06-26T10:55:49;98846.47;;;28.50;43.07
59531;BME280;45349;48.692;8.186;2023-06-26T10:58:30;98851.94;;;28.96;42.27
59531;BME280;45349;48.692;8.186;2023-06-26T11:01:22;98853.59;;;29.23;42.25
59531;BME280;45349;48.692;8.186;2023-06-26T11:04:00;98851.97;;;29.22;40.15
59531;BME280;45349;48.692;8.186;2023-06-26T11:06:34;98851.16;;;28.96;40.80
59531;BME280;45349;48.692;8.186;2023-06-26T11:09:07;98851.31;;;28.53;42.13
59531;BME280;45349;48.692;8.186;2023-06-26T11:11:57;98851.88;;;28.76;41.80
59531;BME280;45349;48.692;8.186;2023-06-26T11:14:33;98849.28;;;29.22;42.71
59531;BME280;45349;48.692;8.186;2023-06-26T11:17:04;98865.81;;;28.62;41.18
59531;BME280;45349;48.692;8.186;2023-06-26T11:19:30;98855.88;;;28.63;41.62
59531;BME280;45349;48.692;8.186;2023-06-26T11:22:04;98852.22;;;28.84;39.99
59531;BME280;45349;48.692;8.186;2023-06-26T11:24:31;98859.22;;;28.17;40.85
59531;BME280;45349;48.692;8.186;2023-06-26T11:27:04;98861.78;;;28.60;41.32
59531;BME280;45349;48.692;8.186;2023-06-26T11:29:31;98860.66;;;28.45;39.87
59531;BME280;45349;48.692;8.186;2023-06-26T11:32:03;98860.97;;;28.54;39.42
59531;BME280;45349;48.692;8.186;2023-06-26T11:34:33;98866.28;;;28.38;39.46
59531;BME280;45349;48.692;8.186;2023-06-26T11:37:00;98853.41;;;28.40;39.60
59531;BME280;45349;48.692;8.186;2023-06-26T11:39:30;98842.63;;;28.30;39.09
59531;BME280;45349;48.692;8.186;2023-06-26T11:41:56;98855.03;;;28.41;39.29
59531;BME280;45349;48.692;8.186;2023-06-26T11:44:29;98860.16;;;28.53;38.86
59531;BME280;45349;48.692;8.186;2023-06-26T11:46:56;98851.41;;;28.15;38.11
59531;BME280;45349;48.692;8.186;2023-06-26T11:49:23;98862.59;;;27.96;38.33
59531;BME280;45349;48.692;8.186;2023-06-26T11:51:52;98866.66;;;27.61;39.38
59531;BME280;45349;48.692;8.186;2023-06-26T11:54:29;98853.16;;;27.94;38.95
59531;BME280;45349;48.692;8.186;2023-06-26T11:56:57;98851.75;;;27.43;39.99
59531;BME280;45349;48.692;8.186;2023-06-26T11:59:32;98851.03;;;27.53;40.01
59531;BME280;45349;48.692;8.186;2023-06-26T12:01:59;98839.28;;;27.59;39.83
59531;BME280;45349;48.692;8.186;2023-06-26T12:04:26;98854.00;;;27.57;39.24
59531;BME280;45349;48.692;8.186;2023-06-26T12:06:53;98843.44;;;27.45;38.99
59531;BME280;45349;48.692;8.186;2023-06-26T12:09:23;98849.59;;;27.40;39.36
59531;BME280;45349;48.692;8.186;2023-06-26T12:11:53;98847.28;;;27.54;38.38
59531;BME280;45349;48.692;8.186;2023-06-26T12:14:20;98846.56;;;27.69;39.42
59531;BME280;45349;48.692;8.186;2023-06-26T12:16:49;98835.56;;;27.65;38.60
59531;BME280;45349;48.692;8.186;2023-06-26T12:19:16;98842.81;;;27.32;39.85
59531;BME280;45349;48.692;8.186;2023-06-26T12:21:49;98838.53;;;27.69;38.73
59531;BME280;45349;48.692;8.186;2023-06-26T12:24:19;98840.53;;;27.89;39.10
59531;BME280;45349;48.692;8.186;2023-06-26T12:26:47;98835.41;;;28.36;39.03
59531;BME280;45349;48.692;8.186;2023-06-26T12:29:17;98844.91;;;28.11;37.48
59531;BME280;45349;48.692;8.186;2023-06-26T12:31:46;98838.66;;;27.90;38.64
59531;BME280;45349;48.692;8.186;2023-06-26T12:34:19;98840.66;;;27.67;38.45
59531;BME280;45349;48.692;8.186;2023-06-26T12:36:47;98851.16;;;27.68;38.74
59531;BME280;45349;48.692;8.186;2023-06-26T12:39:16;98851.09;;;27.63;38.85
59531;BME280;45349;48.692;8.186;2023-06-26T12:41:47;98836.16;;;27.73;39.91
59531;BME280;45349;48.692;8.186;2023-06-26T12:44:18;98834.13;;;27.95;39.21
59531;BME280;45349;48.692;8.186;2023-06-26T12:46:46;98846.72;;;27.95;39.14
59531;BME280;45349;48.692;8.186;2023-06-26T12:49:13;98843.03;;;28.06;37.81
59531;BME280;45349;48.692;8.186;2023-06-26T12:51:40;98827.59;;;28.29;38.07
59531;BME280;45349;48.692;8.186;2023-06-26T12:54:08;98828.22;;;28.62;38.69
59531;BME280;45349;48.692;8.186;2023-06-26T12:56:34;98834.56;;;28.25;37.73
59531;BME280;45349;48.692;8.186;2023-06-26T12:59:01;98825.75;;;27.87;39.10
59531;BME280;45349;48.692;8.186;2023-06-26T13:01:28;98830.34;;;28.50;38.14
59531;BME280;45349;48.692;8.186;2023-06-26T13:03:58;98822.38;;;28.86;37.87
59531;BME280;45349;48.692;8.186;2023-06-26T13:06:25;98810.31;;;28.89;37.94
59531;BME280;45349;48.692;8.186;2023-06-26T13:08:57;98834.16;;;28.75;37.27
59531;BME280;45349;48.692;8.186;2023-06-26T13:11:24;98828.22;;;28.52;37.25
59531;BME280;45349;48.692;8.186;2023-06-26T13:13:50;98823.94;;;28.66;37.63